createdAt,value
2022-08-25T00:01:04.058Z,3.95
2022-08-25T00:03:40.112Z,3.80
2022-08-25T00:06:17.677Z,4.38
2022-08-25T00:08:46.670Z,3.80
2022-08-25T00:11:19.576Z,4.40
2022-08-25T00:14:01.422Z,4.22
2022-08-25T00:16:31.665Z,4.45
2022-08-25T00:19:03.547Z,4.22
2022-08-25T00:21:32.173Z,3.97
2022-08-25T00:24:02.677Z,4.05
2022-08-25T00:26:32.724Z,3.70
2022-08-25T00:29:38.863Z,4.50
2022-08-25T00:32:13.583Z,4.25
2022-08-25T00:34:45.545Z,4.15
2022-08-25T00:37:47.034Z,4.68
2022-08-25T00:40:16.427Z,4.25
2022-08-25T00:42:45.215Z,4.03
2022-08-25T00:45:15.807Z,4.70
2022-08-25T00:47:44.167Z,4.05
2022-08-25T00:50:13.692Z,4.28
2022-08-25T00:52:50.013Z,3.95
2022-08-25T00:55:34.045Z,4.30
2022-08-25T00:58:14.909Z,4.13
2022-08-25T01:00:50.358Z,4.82
2022-08-25T01:03:25.297Z,4.53
2022-08-25T01:06:05.725Z,4.65
2022-08-25T01:08:34.671Z,4.63
2022-08-25T01:11:13.298Z,5.18
2022-08-25T01:13:49.880Z,4.88
2022-08-25T01:16:18.538Z,5.50
2022-08-25T01:18:56.900Z,4.28
2022-08-25T01:21:31.755Z,5.03
2022-08-25T01:24:55.699Z,4.70
2022-08-25T01:27:24.461Z,4.63
2022-08-25T01:30:05.019Z,4.43
2022-08-25T01:32:37.392Z,4.70
2022-08-25T01:36:29.880Z,4.97
2022-08-25T01:44:27.065Z,4.97
2022-08-25T01:46:59.805Z,5.63
2022-08-25T01:50:05.376Z,5.65
2022-08-25T01:55:29.158Z,6.13
2022-08-25T01:58:04.053Z,5.55
2022-08-25T02:00:35.092Z,6.03
2022-08-25T02:11:49.238Z,5.60
2022-08-25T02:14:18.595Z,6.15
2022-08-25T02:17:24.153Z,6.18
2022-08-25T02:19:52.694Z,6.22
2022-08-25T02:22:56.878Z,5.78
2022-08-25T02:25:26.142Z,6.80
2022-08-25T02:28:01.634Z,6.38
2022-08-25T02:35:39.605Z,6.38
2022-08-25T02:38:10.243Z,6.53
2022-08-25T02:40:39.569Z,5.88
2022-08-25T02:43:12.058Z,6.18
2022-08-25T02:51:37.439Z,6.82
2022-08-25T02:54:07.533Z,6.40
2022-08-25T02:56:44.266Z,5.88
2022-08-25T02:59:16.030Z,6.78
2022-08-25T03:01:45.078Z,6.38
2022-08-25T03:04:15.040Z,5.75
2022-08-25T03:06:45.771Z,6.15
2022-08-25T03:09:14.349Z,5.80
2022-08-25T03:11:45.439Z,6.50
2022-08-25T03:14:18.527Z,6.10
2022-08-25T03:21:19.041Z,7.40
2022-08-25T03:23:49.077Z,6.25
2022-08-25T03:38:27.344Z,6.57
2022-08-25T04:00:40.519Z,7.53
2022-08-25T04:17:29.892Z,7.97
2022-08-25T04:25:36.476Z,8.40
2022-08-25T04:28:36.957Z,9.32
2022-08-25T04:31:40.365Z,8.23
2022-08-25T04:34:28.377Z,7.45
2022-08-25T04:37:03.045Z,7.45
2022-08-25T04:39:33.138Z,7.00
2022-08-25T04:42:05.426Z,8.27
2022-08-25T04:44:37.159Z,8.13
2022-08-25T04:47:14.981Z,8.05
2022-08-25T04:51:24.491Z,8.63
2022-08-25T04:53:53.753Z,7.65
2022-08-25T04:56:28.403Z,7.88
2022-08-25T04:59:04.116Z,8.43
2022-08-25T05:01:49.719Z,8.57
2022-08-25T05:05:10.097Z,8.70
2022-08-25T05:07:44.892Z,7.70
2022-08-25T05:10:15.725Z,8.02
2022-08-25T05:12:45.957Z,8.38
2022-08-25T05:15:39.936Z,10.43
2022-08-25T05:18:09.627Z,8.57
2022-08-25T05:20:44.793Z,9.10
2022-08-25T05:23:16.396Z,8.23
2022-08-25T05:25:54.236Z,7.85
2022-08-25T05:28:23.241Z,9.10
2022-08-25T05:30:52.287Z,8.38
2022-08-25T05:33:32.416Z,8.40
2022-08-25T05:36:03.708Z,9.55
2022-08-25T05:38:36.832Z,8.27
2022-08-25T05:41:12.142Z,10.07
2022-08-25T05:52:58.397Z,10.00
2022-08-25T05:57:03.957Z,13.52
2022-08-25T05:59:34.709Z,11.68
2022-08-25T06:05:21.912Z,14.68
2022-08-25T06:21:45.839Z,7.30
2022-08-25T06:24:16.471Z,8.25
2022-08-25T06:27:20.136Z,14.80
2022-08-25T07:55:21.959Z,6.65
2022-08-25T07:57:57.057Z,6.88
2022-08-25T08:00:30.103Z,6.95
2022-08-25T08:03:07.001Z,6.88
2022-08-25T08:05:40.664Z,6.07
2022-08-25T08:08:11.828Z,5.68
2022-08-25T08:11:02.806Z,7.15
2022-08-25T08:13:41.588Z,6.25
2022-08-25T08:16:16.306Z,6.95
2022-08-25T08:18:45.690Z,7.10
2022-08-25T08:21:19.178Z,7.03
2022-08-25T08:23:50.262Z,6.63
2022-08-25T08:26:48.216Z,7.07
2022-08-25T08:29:26.668Z,6.57
2022-08-25T08:31:55.760Z,7.72
2022-08-25T08:34:25.272Z,7.55
2022-08-25T08:37:02.439Z,6.97
2022-08-25T08:39:31.343Z,7.15
2022-08-25T08:42:47.061Z,6.47
2022-08-25T08:45:52.044Z,6.95
2022-08-25T08:48:47.524Z,6.25
2022-08-25T08:51:24.916Z,7.03
2022-08-25T08:54:05.626Z,7.07
2022-08-25T08:56:48.421Z,7.93
2022-08-25T08:59:31.005Z,8.10
2022-08-25T09:02:01.992Z,7.03
2022-08-25T09:04:59.971Z,7.63
2022-08-25T09:07:35.378Z,6.90
2022-08-25T09:10:05.146Z,6.82
2022-08-25T09:12:55.428Z,6.82
2022-08-25T09:16:11.263Z,7.20
2022-08-25T09:19:21.351Z,6.45
2022-08-25T09:22:33.872Z,7.57
2022-08-25T09:25:12.553Z,7.97
2022-08-25T09:27:44.210Z,7.22
2022-08-25T09:30:17.885Z,8.00
2022-08-25T09:32:52.569Z,7.13
2022-08-25T09:35:26.777Z,8.13
2022-08-25T09:37:57.762Z,6.68
2022-08-25T09:40:29.667Z,8.40
2022-08-25T09:43:05.819Z,8.38
2022-08-25T09:45:49.561Z,7.07
2022-08-25T09:48:23.127Z,7.37
2022-08-25T09:50:53.560Z,7.32
2022-08-25T09:53:23.029Z,6.47
2022-08-25T09:56:06.036Z,9.10
2022-08-25T09:58:34.347Z,12.23
2022-08-25T10:01:07.282Z,8.88
2022-08-25T10:03:36.781Z,6.65
2022-08-25T10:06:14.958Z,6.30
2022-08-25T10:08:44.467Z,7.20
2022-08-25T10:11:15.625Z,6.13
2022-08-25T10:13:51.879Z,8.27
2022-08-25T10:16:36.493Z,6.93
2022-08-25T10:19:13.034Z,7.07
2022-08-25T10:21:45.424Z,6.45
2022-08-25T10:24:14.272Z,6.65
2022-08-25T10:27:06.535Z,6.70
2022-08-25T10:30:11.041Z,7.55
2022-08-25T10:33:01.481Z,6.18
2022-08-25T10:35:56.394Z,6.10
2022-08-25T10:39:01.924Z,6.60
2022-08-25T10:41:47.968Z,6.80
2022-08-25T10:45:04.053Z,6.85
2022-08-25T10:47:43.908Z,6.47
2022-08-25T10:50:39.287Z,7.85
2022-08-25T10:53:45.023Z,7.20
2022-08-25T10:56:19.386Z,6.75
2022-08-25T10:59:09.342Z,11.52
2022-08-25T11:01:58.800Z,7.53
2022-08-25T11:04:47.289Z,7.32
2022-08-25T11:07:37.008Z,8.10
2022-08-25T11:10:24.537Z,8.43
2022-08-25T11:13:04.849Z,7.78
2022-08-25T11:16:18.578Z,6.50
2022-08-25T11:18:57.611Z,6.43
2022-08-25T11:21:47.340Z,8.00
2022-08-25T11:24:50.099Z,5.70
2022-08-25T11:27:36.022Z,5.85
2022-08-25T11:30:14.144Z,6.28
2022-08-25T11:32:47.811Z,5.70
2022-08-25T11:35:21.143Z,5.65
2022-08-25T11:38:13.407Z,6.60
2022-08-25T11:41:24.872Z,6.15
2022-08-25T11:44:18.982Z,6.03
2022-08-25T11:46:56.415Z,6.37
2022-08-25T11:49:54.027Z,8.60
2022-08-25T11:52:38.299Z,8.48
2022-08-25T11:55:36.831Z,7.00
2022-08-25T11:58:33.262Z,7.05
2022-08-25T12:01:32.629Z,6.97
2022-08-25T12:04:37.817Z,7.00
2022-08-25T12:07:21.058Z,6.90
2022-08-25T12:09:50.384Z,6.57
2022-08-25T12:12:41.570Z,6.10
2022-08-25T12:15:31.415Z,6.82
2022-08-25T12:18:18.822Z,7.38
2022-08-25T12:21:07.457Z,8.48
2022-08-25T12:24:02.958Z,6.97
2022-08-25T12:26:57.780Z,8.10
2022-08-25T12:32:44.160Z,7.00
2022-08-25T12:35:27.275Z,6.45
2022-08-25T12:38:00.065Z,6.68
2022-08-25T12:40:39.671Z,7.90
2022-08-25T12:43:21.929Z,7.35
2022-08-25T12:46:26.472Z,8.68
2022-08-25T12:49:32.619Z,8.93
2022-08-25T12:52:19.204Z,7.28
2022-08-25T12:54:59.653Z,6.25
2022-08-25T12:57:45.845Z,7.18
2022-08-25T13:00:35.509Z,12.57
2022-08-25T13:03:16.410Z,7.45
2022-08-25T13:06:14.011Z,5.78
2022-08-25T13:09:12.210Z,6.30
2022-08-25T13:11:56.981Z,6.43
2022-08-25T13:14:40.944Z,6.40
2022-08-25T13:17:12.414Z,5.70
2022-08-25T13:19:40.894Z,6.13
2022-08-25T13:22:18.104Z,6.43
2022-08-25T13:24:50.705Z,7.75
2022-08-25T13:27:28.254Z,7.22
2022-08-25T13:30:03.546Z,8.85
2022-08-25T13:32:42.696Z,7.63
2022-08-25T13:35:32.075Z,6.47
2022-08-25T13:38:18.261Z,6.85
2022-08-25T13:40:48.328Z,6.85
2022-08-25T13:43:16.895Z,6.70
2022-08-25T13:45:47.134Z,7.53
2022-08-25T13:48:49.558Z,7.60
2022-08-25T13:51:21.534Z,6.45
2022-08-25T13:53:53.179Z,6.20
2022-08-25T13:56:40.564Z,5.90
2022-08-25T13:59:31.337Z,6.45
2022-08-25T14:02:00.164Z,6.50
2022-08-25T14:04:51.268Z,6.78
2022-08-25T14:07:25.764Z,6.57
2022-08-25T14:12:45.681Z,6.25
2022-08-25T14:15:29.548Z,6.88
2022-08-25T14:18:18.845Z,6.45
2022-08-25T14:20:57.487Z,7.20
2022-08-25T14:23:28.953Z,6.55
2022-08-25T14:25:58.328Z,8.02
2022-08-25T14:28:29.355Z,6.90
2022-08-25T14:31:02.155Z,5.45
2022-08-25T14:33:38.183Z,7.53
2022-08-25T14:36:07.065Z,6.32
2022-08-25T14:38:35.363Z,7.47
2022-08-25T14:41:03.798Z,6.78
2022-08-25T14:43:33.614Z,6.68
2022-08-25T14:46:10.734Z,5.82
2022-08-25T14:48:55.639Z,6.45
2022-08-25T14:51:25.403Z,6.05
2022-08-25T14:54:00.682Z,6.32
2022-08-25T14:56:29.263Z,5.72
2022-08-25T14:58:57.624Z,5.88
2022-08-25T15:01:30.247Z,5.32
2022-08-25T15:04:06.343Z,5.22
2022-08-25T15:06:37.187Z,5.65
2022-08-25T15:09:11.542Z,5.53
2022-08-25T15:11:47.467Z,5.68
2022-08-25T15:14:29.096Z,5.15
2022-08-25T15:17:02.712Z,4.47
2022-08-25T15:19:31.472Z,5.70
2022-08-25T15:21:59.792Z,4.70
2022-08-25T15:24:28.758Z,5.50
2022-08-25T15:27:00.102Z,6.20
2022-08-25T15:29:30.667Z,6.03
2022-08-25T15:32:00.533Z,6.10
2022-08-25T15:34:30.352Z,5.07
2022-08-25T15:37:05.873Z,5.45
2022-08-25T15:39:34.637Z,5.53
2022-08-25T15:42:04.032Z,6.07
2022-08-25T15:44:32.482Z,5.35
2022-08-25T15:47:00.710Z,5.50
2022-08-25T15:49:31.241Z,6.20
2022-08-25T15:52:00.380Z,6.22
2022-08-25T15:54:29.560Z,5.65
2022-08-25T15:56:59.813Z,5.43
2022-08-25T15:59:30.242Z,5.53
2022-08-25T16:01:59.475Z,6.13
2022-08-25T16:04:29.054Z,4.88
2022-08-25T16:06:58.655Z,5.10
2022-08-25T16:09:27.351Z,14.35
2022-08-25T16:11:56.842Z,6.05
2022-08-25T16:14:27.995Z,5.43
2022-08-25T16:16:58.432Z,6.35
2022-08-25T16:19:29.138Z,5.15
2022-08-25T16:21:58.522Z,6.57
2022-08-25T16:24:27.894Z,5.78
2022-08-25T16:27:11.556Z,6.63
2022-08-25T16:29:41.695Z,5.25
2022-08-25T16:32:11.708Z,6.43
2022-08-25T16:34:47.941Z,5.65
2022-08-25T16:37:16.804Z,5.57
2022-08-25T16:39:46.233Z,5.60
2022-08-25T16:42:15.292Z,4.78
2022-08-25T16:44:43.876Z,5.72
2022-08-25T16:47:17.831Z,6.60
2022-08-25T16:49:49.029Z,6.45
2022-08-25T16:52:38.673Z,7.47
2022-08-25T16:55:16.036Z,5.93
2022-08-25T16:57:48.593Z,5.55
2022-08-25T17:00:22.065Z,5.32
2022-08-25T17:02:54.594Z,6.15
2022-08-25T17:05:22.878Z,6.75
2022-08-25T17:08:10.022Z,6.25
2022-08-25T17:10:41.567Z,6.45
2022-08-25T17:13:11.689Z,7.68
2022-08-25T17:15:45.309Z,6.97
2022-08-25T17:18:14.079Z,5.60
2022-08-25T17:20:45.244Z,5.45
2022-08-25T17:23:13.303Z,5.18
2022-08-25T17:25:43.117Z,5.72
2022-08-25T17:28:12.872Z,5.65
2022-08-25T17:30:41.709Z,6.40
2022-08-25T17:33:09.455Z,6.03
2022-08-25T17:35:42.497Z,8.30
2022-08-25T17:38:11.003Z,7.57
2022-08-25T17:40:40.161Z,7.50
2022-08-25T17:43:09.745Z,7.97
2022-08-25T17:45:39.656Z,6.78
2022-08-25T17:48:09.223Z,6.95
2022-08-25T17:50:39.316Z,7.05
2022-08-25T17:53:24.138Z,6.78
2022-08-25T17:58:33.222Z,6.75
2022-08-25T18:01:02.113Z,6.35
2022-08-25T18:03:34.311Z,5.95
2022-08-25T18:06:04.604Z,6.22
2022-08-25T18:08:35.094Z,5.55
2022-08-25T18:11:05.115Z,6.40
2022-08-25T18:13:33.188Z,5.60
2022-08-25T18:16:01.391Z,6.25
2022-08-25T18:18:34.567Z,6.72
2022-08-25T18:21:04.234Z,6.63
2022-08-25T18:23:35.858Z,5.28
2022-08-25T18:26:04.373Z,6.18
2022-08-25T18:28:35.118Z,5.38
2022-08-25T18:31:05.388Z,6.25
2022-08-25T18:33:36.098Z,5.50
2022-08-25T18:36:38.805Z,5.57
2022-08-25T18:39:28.048Z,6.38
2022-08-25T18:42:01.106Z,6.30
2022-08-25T18:44:32.987Z,6.05
2022-08-25T18:47:00.711Z,6.68
2022-08-25T18:49:37.213Z,5.65
2022-08-25T18:52:06.202Z,5.45
2022-08-25T18:54:36.129Z,5.50
2022-08-25T18:57:04.963Z,5.78
2022-08-25T18:59:37.329Z,5.75
2022-08-25T19:02:12.826Z,7.15
2022-08-25T19:04:41.138Z,5.68
2022-08-25T19:07:12.323Z,5.60
2022-08-25T19:09:40.600Z,6.20
2022-08-25T19:12:11.765Z,5.40
2022-08-25T19:14:50.765Z,5.80
2022-08-25T19:17:18.651Z,5.70
2022-08-25T19:19:46.573Z,6.03
2022-08-25T19:22:38.481Z,5.85
2022-08-25T19:25:10.564Z,6.50
2022-08-25T19:27:40.737Z,6.55
2022-08-25T19:30:49.963Z,6.40
2022-08-25T19:33:42.774Z,6.55
2022-08-25T19:36:22.976Z,6.15
2022-08-25T19:38:52.556Z,6.00
2022-08-25T19:41:28.778Z,6.10
2022-08-25T19:43:58.462Z,6.40
2022-08-25T19:46:35.358Z,6.03
2022-08-25T19:49:17.261Z,5.80
2022-08-25T19:51:50.549Z,5.75
2022-08-25T19:54:22.801Z,5.90
2022-08-25T19:56:54.279Z,5.68
2022-08-25T19:59:40.618Z,6.72
2022-08-25T20:02:34.222Z,6.13
2022-08-25T20:05:02.611Z,5.90
2022-08-25T20:07:33.366Z,5.07
2022-08-25T20:10:14.222Z,7.00
2022-08-25T20:12:44.763Z,6.18
2022-08-25T20:15:20.473Z,6.50
2022-08-25T20:17:56.632Z,6.18
2022-08-25T20:20:32.278Z,6.28
2022-08-25T20:23:21.527Z,6.38
2022-08-25T20:25:51.675Z,6.45
2022-08-25T20:28:19.419Z,5.97
2022-08-25T20:30:47.242Z,5.15
2022-08-25T20:33:20.089Z,6.30
2022-08-25T20:35:57.391Z,6.47
2022-08-25T20:38:29.968Z,6.03
2022-08-25T20:40:59.689Z,6.55
2022-08-25T20:43:29.736Z,5.35
2022-08-25T20:46:02.200Z,6.30
2022-08-25T20:48:30.680Z,6.22
2022-08-25T20:51:06.820Z,5.47
2022-08-25T20:53:37.070Z,6.03
2022-08-25T20:56:13.352Z,5.10
2022-08-25T20:58:43.374Z,6.00
2022-08-25T21:01:20.342Z,6.10
2022-08-25T21:03:51.868Z,6.28
2022-08-25T21:06:20.675Z,6.43
2022-08-25T21:08:49.722Z,6.10
2022-08-25T21:11:18.160Z,6.20
2022-08-25T21:13:59.571Z,6.85
2022-08-25T21:16:29.561Z,6.07
2022-08-25T21:18:59.219Z,6.63
2022-08-25T21:21:27.546Z,6.07
2022-08-25T21:24:08.571Z,6.80
2022-08-25T21:26:48.649Z,6.25
2022-08-25T21:29:19.393Z,6.07
2022-08-25T21:31:49.186Z,6.80
2022-08-25T21:34:18.983Z,6.40
2022-08-25T21:36:47.788Z,6.63
2022-08-25T21:39:48.289Z,5.82
2022-08-25T21:42:25.024Z,7.03
2022-08-25T21:44:57.490Z,6.57
2022-08-25T21:47:27.027Z,5.72
2022-08-25T21:49:55.249Z,6.20
2022-08-25T21:52:33.782Z,6.90
2022-08-25T21:55:06.782Z,5.93
2022-08-25T21:57:51.332Z,5.43
2022-08-25T22:00:21.257Z,6.45
2022-08-25T22:02:50.340Z,7.47
2022-08-25T22:05:20.427Z,6.57
2022-08-25T22:07:55.949Z,6.47
2022-08-25T22:11:01.007Z,6.88
2022-08-25T22:13:31.114Z,7.63
2022-08-25T22:16:33.138Z,6.22
2022-08-25T22:19:02.381Z,7.35
2022-08-25T22:21:32.045Z,6.70
2022-08-25T22:24:01.612Z,6.70
2022-08-25T22:26:34.289Z,7.60
2022-08-25T22:29:02.695Z,6.82
2022-08-25T22:31:33.123Z,6.07
2022-08-25T22:34:01.530Z,6.38
2022-08-25T22:36:37.369Z,7.32
2022-08-25T22:39:07.693Z,7.53
2022-08-25T22:41:45.519Z,7.13
2022-08-25T22:44:21.392Z,8.48
2022-08-25T22:46:49.402Z,7.82
2022-08-25T22:49:21.915Z,7.30
2022-08-25T22:51:51.111Z,7.85
2022-08-25T22:54:25.843Z,6.90
2022-08-25T22:56:54.240Z,7.40
2022-08-25T22:59:22.563Z,6.28
2022-08-25T23:01:54.729Z,7.53
2022-08-25T23:04:23.016Z,7.93
2022-08-25T23:06:53.663Z,7.45
2022-08-25T23:09:22.733Z,7.22
2022-08-25T23:11:53.052Z,7.28
2022-08-25T23:14:25.479Z,7.80
2022-08-25T23:16:56.217Z,7.82
2022-08-25T23:19:28.096Z,6.97
2022-08-25T23:22:10.356Z,7.72
2022-08-25T23:29:17.787Z,6.88
2022-08-25T23:31:48.863Z,6.45
2022-08-25T23:34:17.092Z,6.40
2022-08-25T23:36:46.290Z,7.63
2022-08-25T23:39:14.470Z,6.65
2022-08-25T23:41:43.462Z,7.20
2022-08-25T23:44:17.094Z,8.05
2022-08-25T23:46:47.585Z,7.47
2022-08-25T23:49:24.342Z,7.32
2022-08-25T23:51:56.879Z,7.47
2022-08-25T23:54:30.996Z,7.10
2022-08-25T23:57:11.256Z,7.03
2022-08-25T23:59:41.785Z,7.85
